createdAt,value
2023-03-31T00:00:31.769Z,6.62
2023-03-31T00:01:31.745Z,6.66
2023-03-31T00:02:31.786Z,6.66
2023-03-31T00:03:31.908Z,6.56
2023-03-31T00:04:31.832Z,6.56
2023-03-31T00:05:31.703Z,6.58
2023-03-31T00:06:31.701Z,6.61
2023-03-31T00:07:31.678Z,6.70
2023-03-31T00:08:31.685Z,6.69
2023-03-31T00:09:31.654Z,6.69
2023-03-31T00:10:31.689Z,6.64
2023-03-31T00:11:31.668Z,6.70
2023-03-31T00:12:31.636Z,6.70
2023-03-31T00:13:31.652Z,6.70
2023-03-31T00:14:31.643Z,6.69
2023-03-31T00:15:31.596Z,6.70
2023-03-31T00:16:31.663Z,6.77
2023-03-31T00:17:31.601Z,6.74
2023-03-31T00:18:31.580Z,6.74
2023-03-31T00:19:31.548Z,6.85
2023-03-31T00:20:31.549Z,6.74
2023-03-31T00:21:31.530Z,6.87
2023-03-31T00:22:31.518Z,6.91
2023-03-31T00:23:31.553Z,6.92
2023-03-31T00:24:31.521Z,7.05
2023-03-31T00:25:31.491Z,6.98
2023-03-31T00:26:31.484Z,6.99
2023-03-31T00:27:31.482Z,6.97
2023-03-31T00:28:31.460Z,6.98
2023-03-31T00:29:31.492Z,6.98
2023-03-31T00:30:31.450Z,7.03
2023-03-31T00:31:31.472Z,6.98
2023-03-31T00:32:31.405Z,6.98
2023-03-31T00:33:31.400Z,6.97
2023-03-31T00:34:31.391Z,7.05
2023-03-31T00:35:31.435Z,7.02
2023-03-31T00:36:31.353Z,6.99
2023-03-31T00:37:31.339Z,6.99
2023-03-31T00:38:31.331Z,7.13
2023-03-31T00:39:31.326Z,7.15
2023-03-31T00:40:31.336Z,7.07
2023-03-31T00:41:31.345Z,7.06
2023-03-31T00:42:31.288Z,7.09
2023-03-31T00:43:31.272Z,7.05
2023-03-31T00:44:31.279Z,7.02
2023-03-31T00:45:31.268Z,7.10
2023-03-31T00:46:31.299Z,7.10
2023-03-31T00:47:31.373Z,7.07
2023-03-31T00:48:31.220Z,7.07
2023-03-31T00:49:31.213Z,7.06
2023-03-31T00:50:31.201Z,7.02
2023-03-31T00:51:31.205Z,7.13
2023-03-31T00:52:31.208Z,7.02
2023-03-31T00:53:31.161Z,7.15
2023-03-31T00:54:31.180Z,7.06
2023-03-31T00:55:31.155Z,7.12
2023-03-31T00:56:31.165Z,7.15
2023-03-31T00:57:31.260Z,7.03
2023-03-31T00:58:31.107Z,7.12
2023-03-31T00:59:31.155Z,7.05
2023-03-31T01:00:31.109Z,7.13
2023-03-31T01:01:31.140Z,7.12
2023-03-31T01:02:31.122Z,7.05
2023-03-31T01:03:31.092Z,7.13
2023-03-31T01:04:31.050Z,7.07
2023-03-31T01:05:31.050Z,7.07
2023-03-31T01:06:31.155Z,7.05
2023-03-31T01:07:31.043Z,7.06
2023-03-31T01:08:31.016Z,7.15
2023-03-31T01:09:31.008Z,7.17
2023-03-31T01:10:30.971Z,7.09
2023-03-31T01:11:30.965Z,7.17
2023-03-31T01:12:30.968Z,7.17
2023-03-31T01:13:31.032Z,7.28
2023-03-31T01:14:30.950Z,7.17
2023-03-31T01:15:30.927Z,7.15
2023-03-31T01:16:30.941Z,7.27
2023-03-31T01:17:31.027Z,7.27
2023-03-31T01:18:30.976Z,7.24
2023-03-31T01:19:30.978Z,7.31
2023-03-31T01:20:30.879Z,7.24
2023-03-31T01:21:30.948Z,7.21
2023-03-31T01:22:30.844Z,7.15
2023-03-31T01:23:30.829Z,7.39
2023-03-31T01:24:30.848Z,7.28
2023-03-31T01:25:30.881Z,7.32
2023-03-31T01:26:30.799Z,7.32
2023-03-31T01:27:31.723Z,7.30
2023-03-31T01:28:30.790Z,7.30
2023-03-31T01:29:30.763Z,7.43
2023-03-31T01:30:30.777Z,7.35
2023-03-31T01:31:30.882Z,7.37
2023-03-31T01:32:30.757Z,7.40
2023-03-31T01:33:30.767Z,7.39
2023-03-31T01:34:30.771Z,7.39
2023-03-31T01:35:30.785Z,7.42
2023-03-31T01:36:30.693Z,7.39
2023-03-31T01:37:30.738Z,7.37
2023-03-31T01:38:30.661Z,7.32
2023-03-31T01:39:30.669Z,7.39
2023-03-31T01:40:30.668Z,7.35
2023-03-31T01:41:30.634Z,7.40
2023-03-31T01:42:30.636Z,7.27
2023-03-31T01:43:30.658Z,7.27
2023-03-31T01:44:30.608Z,7.27
2023-03-31T01:45:30.586Z,7.31
2023-03-31T01:46:30.710Z,7.27
2023-03-31T01:47:30.630Z,7.27
2023-03-31T01:48:30.561Z,7.21
2023-03-31T01:49:30.625Z,7.16
2023-03-31T01:50:30.544Z,7.24
2023-03-31T01:51:30.514Z,7.12
2023-03-31T01:52:30.594Z,7.13
2023-03-31T01:53:30.512Z,7.17
2023-03-31T01:54:30.500Z,7.10
2023-03-31T01:55:30.538Z,7.06
2023-03-31T01:56:30.463Z,7.02
2023-03-31T01:57:30.525Z,7.03
2023-03-31T01:58:30.437Z,7.05
2023-03-31T01:59:30.448Z,7.05
2023-03-31T02:00:30.417Z,7.02
2023-03-31T02:01:31.347Z,6.91
2023-03-31T02:02:30.487Z,6.99
2023-03-31T02:03:30.461Z,6.91
2023-03-31T02:04:30.374Z,6.92
2023-03-31T02:05:30.378Z,6.92
2023-03-31T02:06:30.373Z,7.02
2023-03-31T02:07:30.340Z,6.98
2023-03-31T02:08:30.420Z,6.98
2023-03-31T02:09:30.319Z,6.97
2023-03-31T02:10:30.314Z,6.95
2023-03-31T02:11:30.325Z,6.95
2023-03-31T02:12:30.282Z,6.89
2023-03-31T02:13:30.310Z,6.94
2023-03-31T02:14:30.281Z,6.98
2023-03-31T02:15:30.259Z,6.99
2023-03-31T02:16:30.354Z,6.95
2023-03-31T02:17:30.461Z,7.06
2023-03-31T02:18:30.214Z,7.03
2023-03-31T02:19:30.204Z,6.98
2023-03-31T02:20:30.278Z,7.05
2023-03-31T02:21:30.187Z,7.02
2023-03-31T02:22:30.189Z,6.92
2023-03-31T02:23:30.156Z,7.05
2023-03-31T02:24:30.152Z,7.03
2023-03-31T02:25:30.135Z,6.97
2023-03-31T02:26:30.214Z,6.95
2023-03-31T02:27:30.124Z,6.95
2023-03-31T02:28:30.120Z,7.02
2023-03-31T02:29:30.088Z,7.02
2023-03-31T02:30:30.107Z,6.95
2023-03-31T02:31:30.102Z,6.89
2023-03-31T02:32:30.146Z,6.97
2023-03-31T02:33:30.050Z,6.95
2023-03-31T02:34:30.047Z,6.99
2023-03-31T02:35:30.051Z,6.95
2023-03-31T02:36:30.036Z,6.95
2023-03-31T02:37:30.012Z,6.95
2023-03-31T02:38:30.048Z,6.91
2023-03-31T02:39:30.005Z,6.95
2023-03-31T02:40:29.970Z,6.97
2023-03-31T02:41:29.977Z,6.91
2023-03-31T02:42:29.952Z,6.99
2023-03-31T02:43:29.962Z,6.92
2023-03-31T02:44:29.983Z,6.95
2023-03-31T02:45:29.952Z,7.05
2023-03-31T02:46:29.997Z,7.03
2023-03-31T02:47:29.900Z,6.97
2023-03-31T02:48:29.883Z,6.99
2023-03-31T02:49:29.870Z,7.02
2023-03-31T02:50:29.926Z,7.06
2023-03-31T02:51:29.846Z,7.09
2023-03-31T02:52:29.851Z,7.07
2023-03-31T02:53:29.825Z,6.98
2023-03-31T02:54:29.834Z,7.02
2023-03-31T02:55:29.812Z,6.99
2023-03-31T02:56:29.837Z,6.99
2023-03-31T02:57:29.832Z,7.03
2023-03-31T02:58:29.766Z,6.98
2023-03-31T02:59:29.764Z,7.02
2023-03-31T03:00:29.748Z,7.07
2023-03-31T03:01:29.837Z,7.16
2023-03-31T03:02:29.970Z,7.10
2023-03-31T03:03:29.804Z,7.16
2023-03-31T03:04:29.717Z,7.20
2023-03-31T03:05:29.694Z,7.12
2023-03-31T03:06:29.684Z,7.09
2023-03-31T03:07:29.681Z,7.12
2023-03-31T03:08:29.703Z,7.15
2023-03-31T03:09:29.662Z,7.09
2023-03-31T03:10:29.668Z,7.12
2023-03-31T03:11:29.640Z,7.12
2023-03-31T03:12:29.621Z,7.02
2023-03-31T03:13:29.618Z,7.03
2023-03-31T03:14:29.644Z,7.03
2023-03-31T03:15:29.606Z,7.10
2023-03-31T03:16:29.587Z,7.06
2023-03-31T03:17:29.605Z,7.15
2023-03-31T03:18:29.553Z,7.16
2023-03-31T03:19:29.535Z,7.13
2023-03-31T03:20:29.569Z,7.09
2023-03-31T03:21:29.546Z,7.16
2023-03-31T03:22:29.517Z,7.17
2023-03-31T03:23:29.508Z,7.24
2023-03-31T03:24:29.612Z,7.20
2023-03-31T03:25:29.479Z,7.16
2023-03-31T03:26:29.504Z,7.20
2023-03-31T03:27:29.448Z,7.21
2023-03-31T03:28:29.460Z,7.25
2023-03-31T03:29:29.521Z,7.23
2023-03-31T03:30:29.448Z,7.30
2023-03-31T03:31:29.512Z,7.27
2023-03-31T03:32:29.416Z,7.30
2023-03-31T03:33:29.400Z,7.30
2023-03-31T03:34:29.457Z,7.30
2023-03-31T03:35:29.424Z,7.32
2023-03-31T03:36:29.399Z,7.37
2023-03-31T03:37:29.372Z,7.34
2023-03-31T03:38:29.392Z,7.45
2023-03-31T03:39:29.331Z,7.55
2023-03-31T03:40:29.334Z,7.57
2023-03-31T03:41:29.306Z,7.67
2023-03-31T03:42:29.359Z,7.68
2023-03-31T03:43:29.376Z,7.79
2023-03-31T03:44:29.281Z,7.85
2023-03-31T03:45:29.250Z,7.92
2023-03-31T03:46:29.274Z,7.98
2023-03-31T03:47:29.343Z,8.08
2023-03-31T03:48:29.209Z,8.11
2023-03-31T03:49:29.203Z,8.26
2023-03-31T03:50:29.268Z,8.22
2023-03-31T03:51:29.180Z,8.26
2023-03-31T03:52:29.185Z,8.26
2023-03-31T03:53:29.175Z,8.28
2023-03-31T03:54:29.139Z,8.30
2023-03-31T03:55:29.143Z,8.26
2023-03-31T03:56:29.169Z,8.40
2023-03-31T03:57:29.303Z,8.41
2023-03-31T03:58:29.160Z,8.40
2023-03-31T03:59:29.108Z,8.43
2023-03-31T04:00:29.071Z,8.44
2023-03-31T04:01:29.063Z,8.37
2023-03-31T04:02:29.284Z,8.40
2023-03-31T04:03:29.071Z,8.50
2023-03-31T04:04:29.049Z,8.37
2023-03-31T04:05:29.175Z,8.36
2023-03-31T04:06:29.006Z,8.41
2023-03-31T04:07:28.999Z,8.45
2023-03-31T04:08:28.980Z,8.45
2023-03-31T04:09:29.032Z,8.45
2023-03-31T04:10:28.985Z,8.45
2023-03-31T04:11:28.952Z,8.40
2023-03-31T04:12:28.948Z,8.41
2023-03-31T04:13:28.944Z,8.47
2023-03-31T04:14:28.947Z,8.43
2023-03-31T04:15:28.966Z,8.30
2023-03-31T04:16:29.194Z,8.40
2023-03-31T04:17:28.919Z,8.44
2023-03-31T04:18:28.866Z,8.29
2023-03-31T04:19:28.859Z,8.41
2023-03-31T04:20:28.856Z,8.38
2023-03-31T04:21:28.890Z,8.34
2023-03-31T04:22:28.835Z,8.38
2023-03-31T04:23:28.811Z,8.38
2023-03-31T04:24:28.831Z,8.44
2023-03-31T04:25:28.795Z,8.41
2023-03-31T04:26:28.788Z,8.38
2023-03-31T04:27:28.827Z,8.43
2023-03-31T04:28:28.768Z,8.44
2023-03-31T04:29:28.743Z,8.33
2023-03-31T04:30:28.764Z,8.45
2023-03-31T04:31:28.772Z,8.38
2023-03-31T04:32:28.767Z,8.38
2023-03-31T04:33:28.757Z,8.34
2023-03-31T04:34:28.704Z,8.43
2023-03-31T04:35:28.712Z,8.30
2023-03-31T04:36:28.667Z,8.37
2023-03-31T04:37:28.669Z,8.37
2023-03-31T04:38:28.640Z,8.47
2023-03-31T04:39:28.704Z,8.50
2023-03-31T04:40:28.616Z,8.45
2023-03-31T04:41:28.627Z,8.44
2023-03-31T04:42:28.622Z,8.37
2023-03-31T04:43:28.596Z,8.50
2023-03-31T04:44:28.587Z,8.37
2023-03-31T04:45:28.637Z,8.44
2023-03-31T04:46:28.695Z,8.45
2023-03-31T04:47:28.618Z,8.37
2023-03-31T04:48:28.545Z,8.50
2023-03-31T04:49:28.560Z,8.41
2023-03-31T04:50:28.545Z,8.41
2023-03-31T04:51:28.523Z,8.52
2023-03-31T04:52:37.326Z,8.45
2023-03-31T04:53:28.484Z,8.50
2023-03-31T04:54:28.497Z,8.47
2023-03-31T04:55:28.476Z,8.36
2023-03-31T04:56:28.450Z,8.44
2023-03-31T04:57:28.514Z,8.41
2023-03-31T04:58:28.447Z,8.40
2023-03-31T04:59:28.431Z,8.44
2023-03-31T05:00:28.422Z,8.44
2023-03-31T05:01:28.414Z,8.44
2023-03-31T05:02:28.468Z,8.44
2023-03-31T05:03:28.444Z,8.47
2023-03-31T05:04:28.376Z,8.38
2023-03-31T05:05:28.354Z,8.38
2023-03-31T05:06:28.371Z,8.43
2023-03-31T05:07:28.319Z,8.44
2023-03-31T05:08:28.328Z,8.43
2023-03-31T05:09:28.330Z,8.41
2023-03-31T05:10:28.289Z,8.43
2023-03-31T05:11:28.328Z,8.55
2023-03-31T05:12:28.297Z,8.38
2023-03-31T05:13:28.281Z,8.41
2023-03-31T05:14:28.263Z,8.52
2023-03-31T05:15:28.245Z,8.47
2023-03-31T05:16:28.266Z,8.44
2023-03-31T05:17:28.255Z,8.50
2023-03-31T05:18:28.238Z,8.48
2023-03-31T05:19:28.209Z,8.52
2023-03-31T05:20:28.187Z,8.58
2023-03-31T05:21:28.210Z,8.44
2023-03-31T05:22:28.168Z,8.45
2023-03-31T05:23:28.175Z,8.48
2023-03-31T05:24:28.133Z,8.50
2023-03-31T05:25:28.148Z,8.48
2023-03-31T05:26:28.143Z,8.53
2023-03-31T05:27:28.138Z,8.52
2023-03-31T05:28:28.956Z,8.50
2023-03-31T05:29:28.111Z,8.48
2023-03-31T05:30:28.161Z,8.50
2023-03-31T05:31:28.134Z,8.55
2023-03-31T05:32:28.091Z,8.50
2023-03-31T05:33:28.047Z,8.50
2023-03-31T05:34:28.410Z,8.52
2023-03-31T05:35:28.015Z,8.56
2023-03-31T05:36:28.041Z,8.47
2023-03-31T05:37:27.989Z,8.50
2023-03-31T05:38:27.977Z,8.53
2023-03-31T05:39:27.992Z,8.52
2023-03-31T05:40:28.000Z,8.52
2023-03-31T05:41:27.993Z,8.61
2023-03-31T05:42:27.943Z,8.55
2023-03-31T05:43:27.929Z,8.48
2023-03-31T05:44:27.917Z,8.52
2023-03-31T05:45:27.921Z,8.53
2023-03-31T05:46:28.002Z,8.50
2023-03-31T05:47:27.943Z,8.47
2023-03-31T05:48:27.870Z,8.50
2023-03-31T05:49:27.876Z,8.45
2023-03-31T05:50:27.885Z,8.50
2023-03-31T05:51:27.857Z,8.59
2023-03-31T05:52:27.892Z,8.52
2023-03-31T05:53:27.815Z,8.52
2023-03-31T05:54:27.803Z,8.55
2023-03-31T05:55:27.790Z,8.62
2023-03-31T05:56:27.796Z,8.53
2023-03-31T05:57:27.978Z,8.65
2023-03-31T05:58:27.814Z,8.63
2023-03-31T05:59:27.755Z,8.63
2023-03-31T06:00:27.751Z,8.66
2023-03-31T06:01:27.886Z,8.65
2023-03-31T06:02:27.791Z,8.65
2023-03-31T06:03:27.786Z,8.68
2023-03-31T06:04:27.803Z,8.66
2023-03-31T06:05:27.680Z,8.68
2023-03-31T06:06:27.703Z,8.73
2023-03-31T06:07:27.692Z,8.74
2023-03-31T06:08:27.695Z,8.63
2023-03-31T06:09:27.673Z,8.70
2023-03-31T06:10:27.647Z,8.79
2023-03-31T06:11:27.629Z,8.79
2023-03-31T06:12:27.626Z,8.86
2023-03-31T06:13:27.600Z,8.77
2023-03-31T06:14:27.572Z,8.83
2023-03-31T06:15:27.562Z,8.94
2023-03-31T06:16:27.678Z,8.95
2023-03-31T06:17:27.761Z,8.89
2023-03-31T06:18:27.540Z,8.89
2023-03-31T06:19:27.543Z,8.96
2023-03-31T06:20:28.558Z,8.92
2023-03-31T06:21:27.496Z,8.95
2023-03-31T06:22:27.514Z,9.10
2023-03-31T06:23:27.497Z,9.02
2023-03-31T06:24:27.481Z,9.02
2023-03-31T06:25:30.628Z,9.01
2023-03-31T06:26:28.440Z,9.02
2023-03-31T06:27:27.456Z,9.13
2023-03-31T06:28:27.463Z,9.13
2023-03-31T06:29:27.407Z,9.13
2023-03-31T06:30:27.419Z,9.11
2023-03-31T06:31:27.433Z,9.14
2023-03-31T06:32:27.394Z,9.11
2023-03-31T06:33:27.397Z,9.05
2023-03-31T06:34:27.424Z,9.05
2023-03-31T06:35:27.352Z,9.14
2023-03-31T06:36:27.340Z,9.14
2023-03-31T06:37:27.317Z,9.15
2023-03-31T06:38:27.328Z,9.08
2023-03-31T06:39:28.272Z,9.05
2023-03-31T06:40:27.360Z,9.17
2023-03-31T06:41:27.327Z,9.17
2023-03-31T06:42:27.279Z,9.21
2023-03-31T06:43:27.272Z,9.21
2023-03-31T06:44:27.234Z,9.21
2023-03-31T06:45:27.264Z,9.18
2023-03-31T06:46:27.332Z,9.21
2023-03-31T06:47:27.233Z,9.23
2023-03-31T06:48:27.228Z,9.26
2023-03-31T06:49:27.187Z,9.20
2023-03-31T06:50:27.227Z,9.20
2023-03-31T06:51:27.180Z,9.24
2023-03-31T06:52:27.166Z,9.20
2023-03-31T06:53:27.170Z,9.26
2023-03-31T06:54:27.148Z,9.28
2023-03-31T06:55:27.189Z,9.31
2023-03-31T06:56:27.127Z,9.28
2023-03-31T06:57:27.158Z,9.29
2023-03-31T06:58:29.797Z,9.26
2023-03-31T06:59:27.068Z,9.26
2023-03-31T07:00:27.182Z,9.26
2023-03-31T07:01:27.119Z,9.23
2023-03-31T07:02:27.139Z,9.23
2023-03-31T07:03:27.147Z,9.20
2023-03-31T07:04:27.056Z,9.23
2023-03-31T07:05:27.006Z,9.15
2023-03-31T07:06:26.989Z,9.26
2023-03-31T07:07:26.996Z,9.23
2023-03-31T07:08:26.979Z,9.23
2023-03-31T07:09:26.963Z,9.26
2023-03-31T07:10:27.037Z,9.24
2023-03-31T07:11:26.939Z,9.15
2023-03-31T07:12:26.940Z,9.20
2023-03-31T07:13:26.952Z,9.20
2023-03-31T07:14:26.926Z,9.17
2023-03-31T07:15:26.903Z,9.15
2023-03-31T07:16:26.949Z,9.20
2023-03-31T07:17:26.871Z,9.21
2023-03-31T07:18:26.856Z,9.14
2023-03-31T07:19:26.844Z,9.17
2023-03-31T07:20:26.858Z,9.11
2023-03-31T07:21:26.827Z,9.11
2023-03-31T07:22:26.854Z,9.13
2023-03-31T07:23:26.797Z,9.11
2023-03-31T07:24:26.807Z,9.15
2023-03-31T07:25:26.822Z,9.08
2023-03-31T07:26:26.796Z,9.08
2023-03-31T07:27:26.782Z,9.05
2023-03-31T07:28:26.787Z,9.04
2023-03-31T07:29:26.743Z,9.04
2023-03-31T07:30:26.731Z,9.04
2023-03-31T07:31:26.755Z,9.14
2023-03-31T07:32:28.514Z,9.01
2023-03-31T07:33:26.683Z,9.02
2023-03-31T07:34:26.742Z,9.05
2023-03-31T07:35:26.669Z,9.04
2023-03-31T07:36:26.673Z,9.04
2023-03-31T07:37:26.646Z,9.05
2023-03-31T07:38:26.651Z,9.02
2023-03-31T07:39:26.615Z,9.04
2023-03-31T07:40:26.722Z,9.04
2023-03-31T07:41:26.616Z,9.05
2023-03-31T07:42:26.734Z,9.01
2023-03-31T07:43:26.586Z,9.15
2023-03-31T07:44:26.592Z,9.08
2023-03-31T07:45:26.562Z,9.13
2023-03-31T07:46:26.611Z,9.11
2023-03-31T07:47:26.532Z,9.08
2023-03-31T07:48:26.514Z,9.14
2023-03-31T07:49:27.358Z,9.14
2023-03-31T07:50:26.516Z,9.13
2023-03-31T07:51:26.526Z,9.20
2023-03-31T07:52:26.469Z,9.14
2023-03-31T07:53:26.504Z,9.13
2023-03-31T07:54:26.465Z,9.20
2023-03-31T07:55:26.474Z,9.26
2023-03-31T07:56:26.459Z,9.24
2023-03-31T07:57:26.493Z,9.35
2023-03-31T07:58:26.433Z,9.39
2023-03-31T07:59:26.419Z,9.33
2023-03-31T08:00:26.395Z,9.40
2023-03-31T08:01:27.033Z,9.38
2023-03-31T08:02:26.405Z,9.39
2023-03-31T08:03:26.374Z,9.35
2023-03-31T08:04:26.364Z,9.42
2023-03-31T08:05:26.361Z,9.54
2023-03-31T08:06:26.318Z,9.56
2023-03-31T08:07:26.304Z,9.51
2023-03-31T08:08:26.343Z,9.47
2023-03-31T08:09:26.317Z,9.48
2023-03-31T08:10:26.306Z,9.38
2023-03-31T08:11:26.294Z,9.53
2023-03-31T08:12:26.263Z,9.53
2023-03-31T08:13:26.232Z,9.54
2023-03-31T08:14:38.350Z,9.54
2023-03-31T08:15:27.251Z,9.50
2023-03-31T08:16:26.267Z,9.53
2023-03-31T08:17:26.260Z,9.56
2023-03-31T08:18:26.210Z,9.56
2023-03-31T08:19:26.167Z,9.69
2023-03-31T08:20:26.164Z,9.65
2023-03-31T08:21:26.179Z,9.61
2023-03-31T08:22:26.138Z,9.71
2023-03-31T08:23:26.144Z,9.71
2023-03-31T08:24:26.170Z,9.76
2023-03-31T08:25:26.098Z,9.71
2023-03-31T08:26:26.120Z,9.74
2023-03-31T08:27:26.108Z,9.79
2023-03-31T08:28:26.101Z,9.72
2023-03-31T08:29:26.080Z,9.74
2023-03-31T08:30:26.121Z,9.81
2023-03-31T08:31:27.451Z,9.74
2023-03-31T08:32:26.054Z,9.81
2023-03-31T08:33:26.009Z,9.78
2023-03-31T08:34:26.028Z,9.72
2023-03-31T08:35:25.986Z,9.83
2023-03-31T08:36:26.072Z,9.75
2023-03-31T08:37:25.965Z,9.84
2023-03-31T08:38:25.976Z,9.78
2023-03-31T08:39:25.947Z,9.90
2023-03-31T08:40:25.960Z,9.86
2023-03-31T08:41:25.918Z,9.81
2023-03-31T08:42:25.967Z,9.79
2023-03-31T08:43:25.938Z,9.83
2023-03-31T08:44:25.903Z,9.76
2023-03-31T08:45:25.893Z,9.79
2023-03-31T08:46:25.952Z,9.76
2023-03-31T08:47:25.866Z,9.79
2023-03-31T08:48:25.993Z,9.74
2023-03-31T08:49:25.837Z,9.74
2023-03-31T08:50:25.854Z,9.75
2023-03-31T08:51:25.818Z,9.79
2023-03-31T08:52:25.799Z,9.74
2023-03-31T08:53:25.797Z,9.86
2023-03-31T08:54:25.795Z,9.83
2023-03-31T08:55:25.778Z,9.76
2023-03-31T08:56:25.783Z,9.78
2023-03-31T08:57:25.804Z,9.79
2023-03-31T08:58:25.776Z,9.84
2023-03-31T08:59:25.729Z,9.78
2023-03-31T09:00:25.740Z,9.83
2023-03-31T09:01:25.776Z,9.86
2023-03-31T09:02:25.957Z,9.89
2023-03-31T09:03:25.762Z,9.89
2023-03-31T09:04:25.715Z,9.89
2023-03-31T09:05:25.659Z,9.93
2023-03-31T09:06:25.683Z,9.90
2023-03-31T09:07:25.662Z,9.91
2023-03-31T09:08:25.639Z,9.99
2023-03-31T09:09:26.792Z,10.11
2023-03-31T09:10:25.606Z,10.14
2023-03-31T09:11:25.586Z,10.15
2023-03-31T09:12:25.623Z,10.27
2023-03-31T09:13:25.600Z,10.20
2023-03-31T09:14:25.572Z,10.23
2023-03-31T09:15:25.580Z,10.22
2023-03-31T09:16:25.584Z,10.22
2023-03-31T09:17:25.682Z,10.30
2023-03-31T09:18:25.636Z,10.41
2023-03-31T09:19:25.513Z,10.32
2023-03-31T09:20:25.519Z,10.40
2023-03-31T09:21:25.507Z,10.48
2023-03-31T09:22:25.468Z,10.56
2023-03-31T09:23:25.476Z,10.53
2023-03-31T09:24:25.492Z,10.55
2023-03-31T09:25:25.444Z,10.67
2023-03-31T09:26:25.458Z,10.66
2023-03-31T09:27:25.428Z,10.84
2023-03-31T09:28:25.399Z,10.79
2023-03-31T09:29:25.426Z,10.86
2023-03-31T09:30:25.404Z,10.85
2023-03-31T09:31:25.389Z,11.02
2023-03-31T09:32:25.376Z,11.07
2023-03-31T09:33:25.406Z,11.19
2023-03-31T09:34:25.360Z,11.21
2023-03-31T09:35:25.457Z,11.17
2023-03-31T09:36:25.366Z,11.17
2023-03-31T09:37:25.298Z,11.25
2023-03-31T09:38:25.327Z,11.27
2023-03-31T09:39:25.300Z,11.39
2023-03-31T09:40:25.277Z,11.39
2023-03-31T09:41:25.372Z,11.49
2023-03-31T09:42:25.264Z,11.51
2023-03-31T09:43:25.230Z,11.67
2023-03-31T09:44:25.277Z,11.72
2023-03-31T09:45:25.235Z,11.75
2023-03-31T09:46:25.262Z,11.78
2023-03-31T09:47:25.249Z,11.80
2023-03-31T09:48:25.206Z,11.75
2023-03-31T09:49:25.166Z,11.82
2023-03-31T09:50:25.598Z,11.82
2023-03-31T09:51:25.144Z,11.88
2023-03-31T09:52:25.135Z,11.96
2023-03-31T09:53:25.137Z,12.02
2023-03-31T09:54:25.135Z,12.17
2023-03-31T09:55:38.421Z,12.12
2023-03-31T09:56:26.140Z,12.17
2023-03-31T09:57:25.101Z,12.24
2023-03-31T09:58:25.086Z,12.27
2023-03-31T09:59:25.076Z,12.29
2023-03-31T10:00:25.044Z,12.37
2023-03-31T10:01:25.058Z,12.46
2023-03-31T10:02:25.096Z,12.49
2023-03-31T10:03:25.067Z,12.47
2023-03-31T10:04:25.111Z,12.47
2023-03-31T10:05:25.007Z,12.53
2023-03-31T10:06:25.011Z,12.57
2023-03-31T10:07:24.967Z,12.56
2023-03-31T10:08:24.999Z,12.50
2023-03-31T10:09:24.943Z,12.68
2023-03-31T10:10:24.951Z,12.71
2023-03-31T10:11:24.958Z,12.74
2023-03-31T10:12:24.911Z,12.79
2023-03-31T10:13:24.918Z,12.89
2023-03-31T10:14:24.910Z,12.96
2023-03-31T10:15:24.880Z,12.96
2023-03-31T10:16:24.912Z,13.01
2023-03-31T10:17:24.889Z,12.97
2023-03-31T10:18:24.907Z,13.04
2023-03-31T10:19:24.834Z,13.10
2023-03-31T10:20:24.835Z,13.14
2023-03-31T10:21:24.824Z,13.19
2023-03-31T10:22:24.851Z,13.19
2023-03-31T10:23:24.788Z,13.23
2023-03-31T10:24:24.796Z,13.28
2023-03-31T10:25:24.770Z,13.39
2023-03-31T10:26:24.776Z,13.44
2023-03-31T10:27:24.780Z,13.42
2023-03-31T10:28:24.750Z,13.29
2023-03-31T10:29:24.722Z,13.26
2023-03-31T10:30:24.725Z,13.39
2023-03-31T10:31:24.751Z,13.39
2023-03-31T10:32:24.769Z,13.36
2023-03-31T10:33:24.715Z,13.44
2023-03-31T10:34:24.720Z,13.38
2023-03-31T10:35:24.654Z,13.39
2023-03-31T10:36:24.640Z,13.51
2023-03-31T10:37:24.653Z,13.54
2023-03-31T10:38:24.666Z,13.60
2023-03-31T10:39:24.634Z,13.55
2023-03-31T10:40:24.596Z,13.60
2023-03-31T10:41:24.678Z,13.62
2023-03-31T10:42:24.574Z,13.66
2023-03-31T10:43:24.609Z,13.71
2023-03-31T10:44:24.580Z,13.84
2023-03-31T10:45:35.761Z,13.89
2023-03-31T10:46:25.549Z,14.00
2023-03-31T10:47:24.592Z,14.10
2023-03-31T10:48:24.555Z,14.03
2023-03-31T10:49:24.510Z,14.10
2023-03-31T10:50:24.512Z,14.04
2023-03-31T10:51:24.507Z,14.07
2023-03-31T10:52:24.475Z,14.20
2023-03-31T10:53:24.466Z,14.18
2023-03-31T10:54:24.475Z,14.20
2023-03-31T10:55:24.447Z,14.15
2023-03-31T10:56:24.442Z,14.10
2023-03-31T10:57:24.455Z,14.20
2023-03-31T10:58:24.392Z,14.28
2023-03-31T10:59:24.395Z,14.33
2023-03-31T11:00:24.410Z,14.42
2023-03-31T11:01:24.446Z,14.58
2023-03-31T11:02:24.358Z,14.61
2023-03-31T11:03:24.485Z,14.83
2023-03-31T11:04:24.340Z,14.86
2023-03-31T11:05:24.339Z,15.16
2023-03-31T11:06:24.310Z,15.17
2023-03-31T11:07:24.312Z,15.31
2023-03-31T11:08:24.336Z,15.32
2023-03-31T11:09:24.275Z,15.28
2023-03-31T11:10:24.330Z,15.38
2023-03-31T11:11:24.279Z,15.41
2023-03-31T11:12:24.274Z,15.64
2023-03-31T11:13:24.243Z,15.80
2023-03-31T11:14:24.208Z,15.84
2023-03-31T11:15:24.274Z,15.93
2023-03-31T11:16:24.302Z,15.86
2023-03-31T11:17:24.227Z,15.87
2023-03-31T11:18:24.173Z,15.90
2023-03-31T11:19:24.163Z,15.80
2023-03-31T11:20:24.158Z,15.82
2023-03-31T11:21:24.153Z,15.71
2023-03-31T11:22:24.132Z,15.64
2023-03-31T11:23:24.145Z,15.51
2023-03-31T11:24:24.158Z,15.28
2023-03-31T11:25:24.142Z,15.19
2023-03-31T11:26:24.101Z,15.02
2023-03-31T11:27:24.095Z,14.92
2023-03-31T11:28:24.056Z,14.88
2023-03-31T11:29:24.060Z,14.78
2023-03-31T11:30:24.087Z,14.68
2023-03-31T11:31:24.086Z,14.61
2023-03-31T11:32:24.043Z,14.47
2023-03-31T11:33:24.021Z,14.58
2023-03-31T11:34:24.040Z,14.50
2023-03-31T11:35:24.003Z,14.50
2023-03-31T11:36:23.995Z,14.39
2023-03-31T11:37:23.956Z,14.27
2023-03-31T11:38:24.217Z,14.20
2023-03-31T11:39:23.936Z,14.32
2023-03-31T11:40:23.940Z,14.29
2023-03-31T11:41:23.928Z,14.09
2023-03-31T11:42:23.954Z,14.06
2023-03-31T11:43:23.900Z,13.96
2023-03-31T11:44:23.910Z,13.79
2023-03-31T11:45:23.871Z,13.69
2023-03-31T11:46:23.894Z,13.66
2023-03-31T11:47:23.892Z,13.64
2023-03-31T11:48:24.472Z,13.75
2023-03-31T11:49:23.823Z,13.87
2023-03-31T11:50:23.828Z,13.91
2023-03-31T11:51:23.831Z,14.06
2023-03-31T11:52:23.829Z,14.14
2023-03-31T11:53:23.832Z,14.20
2023-03-31T11:54:23.808Z,14.20
2023-03-31T11:55:23.780Z,14.24
2023-03-31T11:56:23.976Z,14.24
2023-03-31T11:57:23.852Z,14.18
2023-03-31T11:58:23.773Z,14.22
2023-03-31T11:59:24.417Z,14.22
2023-03-31T12:00:24.417Z,14.14
2023-03-31T12:01:23.725Z,14.22
2023-03-31T12:02:24.489Z,14.27
2023-03-31T12:03:23.895Z,14.24
2023-03-31T12:04:23.690Z,14.45
2023-03-31T12:05:23.677Z,14.37
2023-03-31T12:06:23.767Z,14.36
2023-03-31T12:07:23.637Z,14.35
2023-03-31T12:08:23.653Z,14.27
2023-03-31T12:09:23.624Z,14.25
2023-03-31T12:10:23.584Z,14.40
2023-03-31T12:11:23.573Z,14.36
2023-03-31T12:12:23.564Z,14.42
2023-03-31T12:13:23.552Z,14.50
2023-03-31T12:14:23.597Z,14.51
2023-03-31T12:15:23.572Z,14.57
2023-03-31T12:16:23.550Z,14.55
2023-03-31T12:17:23.521Z,14.57
2023-03-31T12:18:23.511Z,14.54
2023-03-31T12:19:24.442Z,14.50
2023-03-31T12:20:23.493Z,14.51
2023-03-31T12:21:23.460Z,14.51
2023-03-31T12:22:23.479Z,14.47
2023-03-31T12:23:23.442Z,14.42
2023-03-31T12:24:23.454Z,14.57
2023-03-31T12:25:23.437Z,14.52
2023-03-31T12:26:23.416Z,14.55
2023-03-31T12:27:23.388Z,14.55
2023-03-31T12:28:23.404Z,14.51
2023-03-31T12:29:23.456Z,14.58
2023-03-31T12:30:23.383Z,14.69
2023-03-31T12:31:23.386Z,14.72
2023-03-31T12:32:23.400Z,14.80
2023-03-31T12:33:23.328Z,14.89
2023-03-31T12:34:23.320Z,14.96
2023-03-31T12:35:23.330Z,15.03
2023-03-31T12:36:23.326Z,15.07
2023-03-31T12:37:23.297Z,15.11
2023-03-31T12:38:23.268Z,15.02
2023-03-31T12:39:23.272Z,14.91
2023-03-31T12:40:23.324Z,14.95
2023-03-31T12:41:23.278Z,14.94
2023-03-31T12:42:24.723Z,14.92
2023-03-31T12:43:23.212Z,14.94
2023-03-31T12:44:23.246Z,14.99
2023-03-31T12:45:23.203Z,14.94
2023-03-31T12:46:23.286Z,15.06
2023-03-31T12:47:23.207Z,15.10
2023-03-31T12:48:23.183Z,15.09
2023-03-31T12:49:23.194Z,15.07
2023-03-31T12:50:23.133Z,15.13
2023-03-31T12:51:23.119Z,15.14
2023-03-31T12:52:23.135Z,15.11
2023-03-31T12:53:23.109Z,15.16
2023-03-31T12:54:23.087Z,15.23
2023-03-31T12:55:23.107Z,15.16
2023-03-31T12:56:23.063Z,15.28
2023-03-31T12:57:23.119Z,15.34
2023-03-31T12:58:23.095Z,15.32
2023-03-31T12:59:23.048Z,15.46
2023-03-31T13:00:23.022Z,15.50
2023-03-31T13:01:23.125Z,15.49
2023-03-31T13:02:23.108Z,15.46
2023-03-31T13:03:23.071Z,15.47
2023-03-31T13:04:22.982Z,15.39
2023-03-31T13:05:22.987Z,15.36
2023-03-31T13:06:22.987Z,15.28
2023-03-31T13:07:28.137Z,15.20
2023-03-31T13:08:23.959Z,15.14
2023-03-31T13:09:22.948Z,15.09
2023-03-31T13:10:22.998Z,14.98